Terminal Aerodrome Forecast
Issued by NWS

Home | Current Version | Previous Version | Text Only | Print | Product List | Glossary On
Versions: 1 2 3 4 5 6 7 8 9 10 11 12 13 14 15 16 17
000
FTUS44 KLIX 021135
TAFHDC
TAF
KHDC 021135Z 0212/0312 35004KT P6SM SCT020 BKN150
     FM021500 15011KT 6SM -RA VCTS BKN015CB
     FM021800 17010KT 4SM TSRA BR SCT020 OVC050CB
     FM022000 19006KT P6SM -RA VCTS FEW010 BKN040CB OVC150
     FM030300 23005KT P6SM VCSH SCT004 BKN040 OVC150=

USA.gov is the U.S. government's official web portal to all federal, state and local government web resources and services.